createdAt,value
2023-03-23T15:59:44.373Z,2.13
2023-03-23T16:05:07.262Z,1.53
2023-03-23T16:10:30.082Z,1.93
2023-03-23T16:15:52.538Z,1.77
2023-03-23T16:21:17.838Z,1.40
2023-03-23T16:26:41.121Z,1.20
2023-03-23T16:32:03.984Z,1.40
2023-03-23T16:37:33.523Z,1.20
2023-03-23T16:42:59.311Z,1.50
2023-03-23T16:48:21.961Z,1.70
2023-03-23T16:53:44.594Z,1.13
2023-03-23T16:59:06.971Z,1.50
2023-03-23T17:04:30.982Z,1.03
2023-03-23T17:09:54.844Z,0.93
2023-03-23T17:15:17.221Z,1.33
2023-03-23T17:20:40.012Z,1.27
2023-03-23T17:26:04.073Z,1.40
2023-03-23T17:31:26.695Z,1.30
2023-03-23T17:36:49.301Z,2.07
2023-03-23T17:42:12.074Z,1.70
2023-03-23T17:47:35.113Z,2.27
2023-03-23T17:52:58.025Z,1.83
2023-03-23T17:58:20.336Z,2.03
2023-03-23T18:03:45.723Z,2.30
2023-03-23T18:09:08.354Z,1.90
2023-03-23T18:14:30.701Z,1.53
2023-03-23T18:19:53.100Z,1.37
2023-03-23T18:25:16.169Z,1.70
2023-03-23T18:30:39.280Z,2.03
2023-03-23T18:36:02.446Z,2.30
2023-03-23T18:41:25.800Z,2.20
2023-03-23T18:46:48.401Z,2.00
2023-03-23T18:52:10.852Z,2.10
2023-03-23T18:57:33.378Z,2.40
2023-03-23T19:02:56.170Z,2.00
2023-03-23T19:08:18.495Z,2.60
2023-03-23T19:13:53.959Z,5.17
2023-03-23T19:19:25.027Z,3.50
2023-03-23T19:24:47.894Z,2.47
2023-03-23T19:30:10.757Z,2.87
2023-03-23T19:35:33.247Z,3.00
2023-03-23T19:41:03.823Z,2.90
2023-03-23T19:46:30.452Z,3.50
2023-03-23T19:52:09.079Z,3.37
2023-03-23T19:57:32.937Z,4.00
2023-03-23T20:02:56.161Z,3.83
2023-03-23T20:08:18.686Z,3.60
2023-03-23T20:13:41.624Z,2.97
2023-03-23T20:19:05.043Z,3.03
2023-03-23T20:24:28.718Z,3.00
2023-03-23T20:29:54.327Z,2.90
2023-03-23T20:35:16.952Z,3.67
2023-03-23T20:40:39.520Z,3.10
2023-03-23T20:46:03.819Z,2.50
2023-03-23T20:51:26.432Z,2.90
2023-03-23T20:56:49.528Z,3.13
2023-03-23T21:02:15.343Z,3.57
2023-03-23T21:07:39.378Z,2.63
2023-03-23T21:13:02.055Z,2.33
2023-03-23T21:18:24.627Z,2.90
2023-03-23T21:23:52.552Z,2.93
2023-03-23T21:29:15.615Z,3.30
2023-03-23T21:34:38.319Z,2.60
2023-03-23T21:40:01.383Z,3.30
2023-03-23T21:45:25.667Z,3.13
2023-03-23T21:50:48.485Z,5.37
2023-03-23T21:56:12.069Z,3.10
2023-03-23T22:01:37.197Z,2.80
2023-03-23T22:06:59.907Z,2.90
2023-03-23T22:12:22.497Z,3.10
2023-03-23T22:17:45.176Z,3.37
2023-03-23T22:23:08.144Z,2.93
2023-03-23T22:28:31.196Z,2.77
2023-03-23T22:33:55.788Z,2.63
2023-03-23T22:39:18.312Z,2.20
2023-03-23T22:44:41.508Z,3.00
2023-03-23T22:50:07.960Z,2.73
2023-03-23T22:55:30.856Z,2.90
2023-03-23T23:01:06.222Z,2.70
2023-03-23T23:06:28.845Z,2.80
2023-03-23T23:11:51.266Z,2.50
2023-03-23T23:17:13.829Z,2.50
2023-03-23T23:22:36.598Z,2.47
2023-03-23T23:28:01.239Z,2.27
2023-03-23T23:33:23.795Z,2.07
2023-03-23T23:38:46.071Z,2.63
2023-03-23T23:44:08.312Z,2.53
2023-03-23T23:49:34.220Z,2.57
2023-03-23T23:54:56.823Z,2.37
